createdAt,value
2017-06-21T00:01:07.461Z,82.6
2017-06-21T00:02:16.351Z,82.35
2017-06-21T00:03:25.239Z,82.41
2017-06-21T00:04:34.728Z,82.51
2017-06-21T00:05:43.620Z,82.31
2017-06-21T00:06:52.831Z,82.6
2017-06-21T00:08:02.042Z,82.7
2017-06-21T00:09:10.977Z,82.89
2017-06-21T00:10:20.511Z,84.13
2017-06-21T00:11:29.873Z,83.65
2017-06-21T00:12:38.792Z,84.03
2017-06-21T00:13:47.681Z,83.27
2017-06-21T00:14:56.569Z,83.65
2017-06-21T00:16:05.454Z,84.13
2017-06-21T00:17:14.442Z,83.56
2017-06-21T00:18:23.335Z,84.23
2017-06-21T00:19:32.588Z,83.94
2017-06-21T00:20:41.484Z,83.84
2017-06-21T00:21:50.697Z,84.03
2017-06-21T00:22:59.839Z,84.23
2017-06-21T00:24:09.387Z,84.42
2017-06-21T00:25:18.278Z,84.89
2017-06-21T00:26:27.495Z,85.09
2017-06-21T00:27:36.383Z,84.61
2017-06-21T00:28:45.425Z,83.84
2017-06-21T00:29:54.668Z,84.8
2017-06-21T00:31:03.561Z,84.13
2017-06-21T00:32:12.775Z,84.13
2017-06-21T00:33:21.985Z,84.61
2017-06-21T00:34:31.508Z,84.99
2017-06-21T00:35:40.721Z,85.42
2017-06-21T00:36:49.929Z,85.42
2017-06-21T00:37:58.817Z,85.33
2017-06-21T00:39:07.709Z,85.42
2017-06-21T00:40:16.598Z,85.42
2017-06-21T00:41:25.809Z,85.62
2017-06-21T00:42:34.696Z,86.57
2017-06-21T00:43:43.583Z,86.38
2017-06-21T00:44:52.793Z,85.9
2017-06-21T00:46:01.981Z,85.42
2017-06-21T00:47:11.196Z,86
2017-06-21T00:48:20.089Z,85.9
2017-06-21T00:49:28.978Z,86
2017-06-21T00:50:38.187Z,86.38
2017-06-21T00:51:47.223Z,86.1
2017-06-21T00:52:56.109Z,86.19
2017-06-21T00:54:04.997Z,86.76
2017-06-21T00:55:14.211Z,87.05
2017-06-21T00:56:23.098Z,86.86
2017-06-21T00:57:32.459Z,86.76
2017-06-21T00:58:41.349Z,86.76
2017-06-21T00:59:50.235Z,86.67
2017-06-21T01:00:59.447Z,86.57
2017-06-21T01:02:08.660Z,87.43
2017-06-21T01:03:17.597Z,87.53
2017-06-21T01:04:26.489Z,87.72
2017-06-21T01:05:36.027Z,88.01
2017-06-21T01:06:44.919Z,88.06
2017-06-21T01:07:53.807Z,89.01
2017-06-21T01:09:02.847Z,88.34
2017-06-21T01:10:11.785Z,88.44
2017-06-21T01:11:20.672Z,88.63
2017-06-21T01:12:29.560Z,88.44
2017-06-21T01:13:38.446Z,88.34
2017-06-21T01:14:48.036Z,87.96
2017-06-21T01:15:57.572Z,88.44
2017-06-21T01:17:06.788Z,88.73
2017-06-21T01:18:15.679Z,88.73
2017-06-21T01:19:24.894Z,88.44
2017-06-21T01:20:33.934Z,88.73
2017-06-21T01:21:42.823Z,89.11
2017-06-21T01:22:52.364Z,88.82
2017-06-21T01:24:01.581Z,89.68
2017-06-21T01:25:10.470Z,89.59
2017-06-21T01:26:19.830Z,89.59
2017-06-21T01:27:28.755Z,89.3
2017-06-21T01:28:37.648Z,89.39
2017-06-21T01:29:46.579Z,90.16
2017-06-21T01:30:55.467Z,90.45
2017-06-21T01:32:04.658Z,90.35
2017-06-21T01:33:13.869Z,90.83
2017-06-21T01:34:23.082Z,90.16
2017-06-21T01:35:31.969Z,90.16
2017-06-21T01:36:40.858Z,90.45
2017-06-21T01:37:49.746Z,90.73
2017-06-21T01:38:58.631Z,90.35
2017-06-21T01:40:07.515Z,90.83
2017-06-21T01:41:16.404Z,90.73
2017-06-21T01:42:25.616Z,90.83
2017-06-21T01:43:34.656Z,90.64
2017-06-21T01:44:43.545Z,90.54
2017-06-21T01:45:52.429Z,91.07
2017-06-21T01:47:01.318Z,90.59
2017-06-21T01:48:10.534Z,91.45
2017-06-21T01:49:19.998Z,92.02
2017-06-21T01:50:28.899Z,91.74
2017-06-21T01:51:38.109Z,92.02
2017-06-21T01:52:47.320Z,92.02
2017-06-21T01:53:56.203Z,92.69
2017-06-21T01:55:05.250Z,92.69
2017-06-21T01:56:14.149Z,92.88
2017-06-21T01:57:23.358Z,92.88
2017-06-21T01:58:32.245Z,92.97
2017-06-21T01:59:41.780Z,92.69
2017-06-21T02:00:51.040Z,92.31
2017-06-21T02:02:00.264Z,92.02
2017-06-21T02:03:09.155Z,92.97
2017-06-21T02:04:18.046Z,92.97
2017-06-21T02:05:26.930Z,93.36
2017-06-21T02:06:36.250Z,93.55
2017-06-21T02:07:45.141Z,93.17
2017-06-21T02:08:54.029Z,93.93
2017-06-21T02:10:02.916Z,93.65
2017-06-21T02:11:11.806Z,94.31
2017-06-21T02:12:20.845Z,93.46
2017-06-21T02:13:30.063Z,93.17
2017-06-21T02:14:39.280Z,94.27
2017-06-21T02:15:48.499Z,94.46
2017-06-21T02:16:57.391Z,94.65
2017-06-21T02:18:06.281Z,95.32
2017-06-21T02:19:15.817Z,94.74
2017-06-21T02:20:24.701Z,94.27
2017-06-21T02:21:33.957Z,93.7
2017-06-21T02:22:43.173Z,95.03
2017-06-21T02:23:52.631Z,93.79
2017-06-21T02:25:01.849Z,93.7
2017-06-21T02:26:10.737Z,94.17
2017-06-21T02:27:19.624Z,94.17
2017-06-21T02:28:28.832Z,94.74
2017-06-21T02:29:38.157Z,94.84
2017-06-21T02:30:47.397Z,94.84
2017-06-21T02:31:56.290Z,94.46
2017-06-21T02:33:05.181Z,95.03
2017-06-21T02:34:14.072Z,94.84
2017-06-21T02:35:23.012Z,95.22
2017-06-21T02:36:32.236Z,95.7
2017-06-21T02:37:41.450Z,95.22
2017-06-21T02:38:50.989Z,95.22
2017-06-21T02:39:59.883Z,95.51
2017-06-21T02:41:09.573Z,96.27
2017-06-21T02:42:18.790Z,95.41
2017-06-21T02:43:27.678Z,95.7
2017-06-21T02:44:36.888Z,96.08
2017-06-21T02:45:45.775Z,95.51
2017-06-21T02:46:54.812Z,94.74
2017-06-21T02:48:03.700Z,94.7
2017-06-21T02:49:12.584Z,95.41
2017-06-21T02:50:21.472Z,95.7
2017-06-21T02:51:30.360Z,95.56
2017-06-21T02:52:39.625Z,95.65
2017-06-21T02:53:48.834Z,96.22
2017-06-21T02:54:57.721Z,96.98
2017-06-21T02:56:06.612Z,96.46
2017-06-21T02:57:15.826Z,96.7
2017-06-21T02:58:25.038Z,97.08
2017-06-21T02:59:33.926Z,96.61
2017-06-21T03:00:42.817Z,97.08
2017-06-21T03:01:51.703Z,96.7
2017-06-21T03:03:01.241Z,95.75
2017-06-21T03:04:10.179Z,95.65
2017-06-21T03:05:19.393Z,96.32
2017-06-21T03:06:28.280Z,96.32
2017-06-21T03:07:37.492Z,96.7
2017-06-21T03:08:46.706Z,96.7
2017-06-21T03:09:56.220Z,96.8
2017-06-21T03:11:05.110Z,96.32
2017-06-21T03:12:14.001Z,96.41
2017-06-21T03:13:23.536Z,96.61
2017-06-21T03:14:32.422Z,96.51
2017-06-21T03:15:41.638Z,97.17
2017-06-21T03:16:50.525Z,96.98
2017-06-21T03:17:59.740Z,97.27
2017-06-21T03:19:08.628Z,97.46
2017-06-21T03:20:17.846Z,97.46
2017-06-21T03:21:26.831Z,97.56
2017-06-21T03:22:35.717Z,97.37
2017-06-21T03:23:45.251Z,96.7
2017-06-21T03:24:54.141Z,96.8
2017-06-21T03:26:03.031Z,97.37
2017-06-21T03:27:12.720Z,97.56
2017-06-21T03:28:21.602Z,97.17
2017-06-21T03:29:30.807Z,97.37
2017-06-21T03:30:39.742Z,96.98
2017-06-21T03:31:48.628Z,96.7
2017-06-21T03:32:57.563Z,96.51
2017-06-21T03:34:06.452Z,96.61
2017-06-21T03:35:15.658Z,96.41
2017-06-21T03:36:24.549Z,96.98
2017-06-21T03:37:33.764Z,97.46
2017-06-21T03:38:42.802Z,97.17
2017-06-21T03:39:52.014Z,97.37
2017-06-21T03:41:01.227Z,97.37
2017-06-21T03:42:10.116Z,97.08
2017-06-21T03:43:19.006Z,97.08
2017-06-21T03:44:28.544Z,96.41
2017-06-21T03:45:38.084Z,96.32
2017-06-21T03:46:46.970Z,96.41
2017-06-21T03:47:55.860Z,97.37
2017-06-21T03:49:05.394Z,97.08
2017-06-21T03:50:14.805Z,96.98
2017-06-21T03:51:24.025Z,97.46
2017-06-21T03:52:32.913Z,97.08
2017-06-21T03:53:42.123Z,96.89
2017-06-21T03:54:51.010Z,96.98
2017-06-21T03:56:00.491Z,97.17
2017-06-21T03:57:09.378Z,96.32
2017-06-21T03:58:18.593Z,97.37
2017-06-21T03:59:27.814Z,97.08
2017-06-21T04:00:36.701Z,96.61
2017-06-21T04:01:46.291Z,97.46
2017-06-21T04:02:55.505Z,97.8
2017-06-21T04:04:04.400Z,97.37
2017-06-21T04:05:13.286Z,96.75
2017-06-21T04:06:22.508Z,97.42
2017-06-21T04:07:31.550Z,97.51
2017-06-21T04:08:40.440Z,97.89
2017-06-21T04:09:49.331Z,98.08
2017-06-21T04:10:58.226Z,97.99
2017-06-21T04:12:07.438Z,97.89
2017-06-21T04:13:16.327Z,97.32
2017-06-21T04:14:25.219Z,96.84
2017-06-21T04:15:34.106Z,96.37
2017-06-21T04:16:42.997Z,97.22
2017-06-21T04:17:51.881Z,96.37
2017-06-21T04:19:00.817Z,96.08
2017-06-21T04:20:09.707Z,95.89
2017-06-21T04:21:18.925Z,95.7
2017-06-21T04:22:27.816Z,95.89
2017-06-21T04:23:37.031Z,95.7
2017-06-21T04:24:46.589Z,95.12
2017-06-21T04:26:28.175Z,95.7
2017-06-21T04:27:37.062Z,95.7
2017-06-21T04:28:46.272Z,94.93
2017-06-21T04:29:55.787Z,94.03
2017-06-21T04:31:04.678Z,94.51
2017-06-21T04:32:13.895Z,95.08
2017-06-21T04:33:22.791Z,94.51
2017-06-21T04:34:32.004Z,93.84
2017-06-21T04:35:41.217Z,93.55
2017-06-21T04:36:50.106Z,93.55
2017-06-21T04:37:58.997Z,94.22
2017-06-21T04:39:07.884Z,92.97
2017-06-21T04:40:16.769Z,92.97
2017-06-21T04:41:25.986Z,93.46
2017-06-21T04:42:34.875Z,92.88
2017-06-21T04:43:43.764Z,93.07
2017-06-21T04:44:52.979Z,92.97
2017-06-21T04:46:02.192Z,92.6
2017-06-21T04:47:11.557Z,92.79
2017-06-21T04:48:20.447Z,92.41
2017-06-21T04:49:29.989Z,92.69
2017-06-21T04:50:39.198Z,92.31
2017-06-21T04:51:48.086Z,91.83
2017-06-21T04:52:57.071Z,92.12
2017-06-21T04:54:05.958Z,92.12
2017-06-21T04:55:14.844Z,92.69
2017-06-21T04:56:23.731Z,92.02
2017-06-21T04:57:32.622Z,91.78
2017-06-21T04:58:41.665Z,91.4
2017-06-21T04:59:50.551Z,91.11
2017-06-21T05:00:59.772Z,91.3
2017-06-21T05:02:08.662Z,90.73
2017-06-21T05:03:17.561Z,90.73
2017-06-21T05:04:26.653Z,90.35
2017-06-21T05:05:35.869Z,90.54
2017-06-21T05:06:44.759Z,91.5
2017-06-21T05:07:54.624Z,91.69
2017-06-21T05:09:03.510Z,91.3
2017-06-21T05:10:12.920Z,91.5
2017-06-21T05:11:21.812Z,90.92
2017-06-21T05:12:30.702Z,90.54
2017-06-21T05:13:39.591Z,90.54
2017-06-21T05:14:48.486Z,89.87
2017-06-21T05:15:57.951Z,89.59
2017-06-21T05:17:06.844Z,89.49
2017-06-21T05:18:15.736Z,89.39
2017-06-21T05:19:24.627Z,88.54
2017-06-21T05:20:33.845Z,89.06
2017-06-21T05:21:43.214Z,88.96
2017-06-21T05:22:52.435Z,88.44
2017-06-21T05:24:01.332Z,88.06
2017-06-21T05:25:10.226Z,88.15
2017-06-21T05:26:19.114Z,88.48
2017-06-21T05:27:28.005Z,88.34
2017-06-21T05:28:37.230Z,88.39
2017-06-21T05:29:46.124Z,87.53
2017-06-21T05:30:55.345Z,87.72
2017-06-21T05:32:04.566Z,87.05
2017-06-21T05:33:13.706Z,87.24
2017-06-21T05:34:22.595Z,87.05
2017-06-21T05:35:31.808Z,86.67
2017-06-21T05:36:40.699Z,86.76
2017-06-21T05:37:49.586Z,86.76
2017-06-21T05:38:59.375Z,86.47
2017-06-21T05:40:08.589Z,86.76
2017-06-21T05:41:17.477Z,86.67
2017-06-21T05:42:26.364Z,86.47
2017-06-21T05:43:35.255Z,86.86
2017-06-21T05:44:44.293Z,86.57
2017-06-21T05:45:53.184Z,86.86
2017-06-21T05:47:02.093Z,86.57
2017-06-21T05:48:10.986Z,86.1
2017-06-21T05:49:19.875Z,85.9
2017-06-21T05:50:29.015Z,86.76
2017-06-21T05:51:38.244Z,86
2017-06-21T05:52:47.459Z,86.67
2017-06-21T05:53:56.411Z,85.9
2017-06-21T05:55:05.376Z,86.33
2017-06-21T05:56:14.595Z,86.71
2017-06-21T05:57:23.813Z,85.47
2017-06-21T05:58:32.709Z,84.99
2017-06-21T05:59:41.601Z,85.38
2017-06-21T06:00:51.139Z,85.47
2017-06-21T06:02:00.029Z,85.94
2017-06-21T06:03:09.239Z,85.28
2017-06-21T06:04:18.127Z,85.47
2017-06-21T06:05:27.337Z,84.42
2017-06-21T06:06:36.549Z,84.32
2017-06-21T06:07:45.438Z,84.8
2017-06-21T06:08:54.326Z,84.13
2017-06-21T06:10:03.217Z,83.65
2017-06-21T06:11:12.531Z,83.37
2017-06-21T06:12:21.421Z,83.37
2017-06-21T06:13:30.309Z,83.37
2017-06-21T06:14:39.525Z,83.37
2017-06-21T06:15:48.418Z,83.27
2017-06-21T06:16:57.406Z,82.98
2017-06-21T06:18:06.300Z,82.51
2017-06-21T06:19:15.188Z,82.79
2017-06-21T06:20:24.077Z,83.08
2017-06-21T06:21:33.633Z,83.5
2017-06-21T06:22:42.674Z,83.56
2017-06-21T06:23:51.565Z,83.65
2017-06-21T06:25:00.783Z,83.56
2017-06-21T06:26:09.671Z,82.83
2017-06-21T06:27:19.213Z,82.93
2017-06-21T06:28:28.476Z,82.17
2017-06-21T06:29:37.364Z,82.35
2017-06-21T06:30:46.575Z,81.4
2017-06-21T06:31:55.470Z,81.59
2017-06-21T06:33:04.686Z,80.82
2017-06-21T06:34:13.679Z,80.82
2017-06-21T06:35:22.892Z,81.21
2017-06-21T06:36:32.108Z,81.21
2017-06-21T06:37:41.004Z,81.78
2017-06-21T06:38:49.899Z,80.82
2017-06-21T06:39:58.790Z,80.16
2017-06-21T06:41:07.678Z,79.52
2017-06-21T06:42:16.893Z,79.96
2017-06-21T06:43:26.104Z,80.38
2017-06-21T06:44:34.996Z,79.91
2017-06-21T06:45:44.040Z,78.57
2017-06-21T06:46:52.931Z,79.14
2017-06-21T06:48:02.471Z,79.43
2017-06-21T06:49:11.361Z,79.52
2017-06-21T06:50:20.574Z,79.58
2017-06-21T06:51:30.042Z,78.66
2017-06-21T06:52:38.939Z,78.95
2017-06-21T06:53:47.834Z,78.76
2017-06-21T06:54:57.056Z,78.47
2017-06-21T06:56:05.954Z,79.05
2017-06-21T06:57:15.342Z,79.24
2017-06-21T06:58:24.231Z,79.43
2017-06-21T06:59:33.118Z,79.43
2017-06-21T07:00:42.005Z,78.57
2017-06-21T07:01:50.892Z,77.8
2017-06-21T07:02:59.934Z,78.57
2017-06-21T07:04:08.824Z,78.28
2017-06-21T07:05:18.367Z,77.9
2017-06-21T07:06:27.259Z,78.22
2017-06-21T07:07:36.159Z,77.99
2017-06-21T07:08:45.956Z,78.03
2017-06-21T07:09:54.856Z,77.17
2017-06-21T07:11:04.108Z,77.26
2017-06-21T07:12:13.086Z,77.51
2017-06-21T07:13:21.981Z,77.17
2017-06-21T07:14:31.225Z,77.17
2017-06-21T07:15:40.451Z,77.17
2017-06-21T07:16:49.343Z,77.55
2017-06-21T07:17:58.239Z,77.42
2017-06-21T07:19:07.139Z,78.03
2017-06-21T07:20:16.414Z,77.84
2017-06-21T07:21:25.334Z,77.17
2017-06-21T07:22:34.597Z,76.89
2017-06-21T07:23:43.492Z,76.5
2017-06-21T07:24:52.714Z,76.89
2017-06-21T07:26:01.811Z,76.89
2017-06-21T07:27:11.027Z,76.98
2017-06-21T07:28:19.919Z,76.92
2017-06-21T07:29:29.138Z,76.5
2017-06-21T07:30:38.028Z,75.83
2017-06-21T07:31:47.107Z,75.48
2017-06-21T07:32:56.328Z,76.15
2017-06-21T07:34:05.220Z,76.64
2017-06-21T07:35:14.131Z,75.58
2017-06-21T07:36:23.674Z,74.87
2017-06-21T07:37:33.148Z,75.35
2017-06-21T07:38:42.369Z,76.21
2017-06-21T07:39:51.262Z,76.44
2017-06-21T07:41:00.481Z,75.77
2017-06-21T07:42:09.374Z,75.01
2017-06-21T07:43:18.643Z,75.68
2017-06-21T07:44:27.858Z,75.39
2017-06-21T07:45:37.075Z,75.2
2017-06-21T07:46:46.295Z,74.24
2017-06-21T07:47:55.843Z,74.05
2017-06-21T07:49:04.985Z,73.76
2017-06-21T07:50:14.218Z,74.24
2017-06-21T07:51:23.106Z,74.05
2017-06-21T07:52:31.996Z,73.76
2017-06-21T07:53:40.891Z,72.45
2017-06-21T07:54:49.783Z,73.22
2017-06-21T07:55:59.003Z,74.27
2017-06-21T07:57:08.218Z,73.32
2017-06-21T07:58:17.435Z,73.09
2017-06-21T07:59:26.646Z,73.57
2017-06-21T08:00:35.632Z,73.76
2017-06-21T08:01:44.522Z,74.27
2017-06-21T08:02:53.425Z,74.85
2017-06-21T08:04:02.977Z,74.66
2017-06-21T08:05:11.873Z,74.66
2017-06-21T08:06:20.864Z,73.41
2017-06-21T08:07:29.757Z,73.61
2017-06-21T08:08:38.673Z,73.13
2017-06-21T08:09:47.570Z,73.55
2017-06-21T08:10:56.458Z,72.11
2017-06-21T08:12:05.508Z,72.97
2017-06-21T08:13:14.400Z,72.88
2017-06-21T08:14:23.289Z,71.15
2017-06-21T08:15:32.504Z,70.96
2017-06-21T08:16:41.720Z,71.34
2017-06-21T08:17:51.037Z,70.76
2017-06-21T08:18:59.931Z,71.15
2017-06-21T08:20:09.473Z,70.67
2017-06-21T08:21:18.689Z,69.9
2017-06-21T08:22:27.582Z,69.9
2017-06-21T08:23:36.678Z,70.29
2017-06-21T08:24:45.570Z,70.29
2017-06-21T08:25:54.462Z,69.46
2017-06-21T08:27:03.679Z,68.4
2017-06-21T08:28:12.577Z,67.83
2017-06-21T08:29:21.470Z,69.46
2017-06-21T08:30:30.690Z,69.74
2017-06-21T08:31:39.906Z,68.98
2017-06-21T08:32:48.798Z,68.98
2017-06-21T08:33:57.692Z,69.93
2017-06-21T08:35:07.161Z,68.79
2017-06-21T08:36:16.702Z,68.21
2017-06-21T08:37:25.916Z,68.63
2017-06-21T08:38:34.806Z,68.63
2017-06-21T08:39:44.024Z,68.91
2017-06-21T08:40:53.070Z,68.44
2017-06-21T08:42:02.288Z,68.24
2017-06-21T08:43:11.508Z,69.87
2017-06-21T08:44:20.403Z,68.34
2017-06-21T08:45:29.299Z,68.91
2017-06-21T08:46:38.667Z,68.15
2017-06-21T08:47:47.885Z,68.05
2017-06-21T08:48:57.099Z,67.67
2017-06-21T08:50:06.030Z,68.05
2017-06-21T08:51:15.247Z,67.19
2017-06-21T08:52:24.292Z,67.38
2017-06-21T08:53:33.833Z,67.09
2017-06-21T08:54:42.726Z,66.9
2017-06-21T08:55:51.622Z,67.29
2017-06-21T08:57:00.842Z,66.9
2017-06-21T08:58:09.888Z,66.61
2017-06-21T08:59:19.106Z,67.29
2017-06-21T09:00:28.326Z,67.61
2017-06-21T09:01:37.549Z,67.19
2017-06-21T09:02:46.767Z,67.09
2017-06-21T09:03:55.809Z,66.26
2017-06-21T09:05:04.703Z,67.76
2017-06-21T09:06:13.594Z,65.27
2017-06-21T09:07:22.489Z,66.03
2017-06-21T09:08:31.716Z,66.52
2017-06-21T09:09:40.857Z,67.19
2017-06-21T09:10:49.784Z,65.2
2017-06-21T09:11:58.712Z,65.78
2017-06-21T09:13:08.299Z,65.3
2017-06-21T09:14:17.200Z,66.26
2017-06-21T09:15:26.397Z,66.26
2017-06-21T09:16:35.619Z,65.88
2017-06-21T09:17:44.835Z,66.26
2017-06-21T09:18:53.732Z,65.01
2017-06-21T09:20:02.628Z,65.3
2017-06-21T09:21:11.955Z,67.13
2017-06-21T09:22:21.171Z,66.58
2017-06-21T09:23:30.063Z,66
2017-06-21T09:24:39.282Z,64.85
2017-06-21T09:25:48.503Z,64.95
2017-06-21T09:26:57.772Z,65.46
2017-06-21T09:28:06.991Z,64.4
2017-06-21T09:29:15.893Z,63.92
2017-06-21T09:30:25.438Z,64.4
2017-06-21T09:31:35.022Z,64.76
2017-06-21T09:32:44.181Z,62.07
2017-06-21T09:33:53.396Z,63.89
2017-06-21T09:35:02.939Z,63.32
2017-06-21T09:36:11.839Z,63.54
2017-06-21T09:37:20.741Z,63.45
2017-06-21T09:38:29.787Z,63.35
2017-06-21T09:39:39.011Z,63.92
2017-06-21T09:40:47.909Z,62.58
2017-06-21T09:41:56.809Z,62.77
2017-06-21T09:43:06.366Z,61.52
2017-06-21T09:44:15.641Z,60.08
2017-06-21T09:45:24.532Z,62
2017-06-21T09:46:33.432Z,62.1
2017-06-21T09:47:42.329Z,61.33
2017-06-21T09:48:51.221Z,59.31
2017-06-21T09:50:00.214Z,59.89
2017-06-21T09:51:10.088Z,59.69
2017-06-21T09:52:18.990Z,61.52
2017-06-21T09:53:27.881Z,61.23
2017-06-21T09:54:37.096Z,58.95
2017-06-21T09:55:46.413Z,59.5
2017-06-21T09:56:55.634Z,58.86
2017-06-21T09:58:04.856Z,57.68
2017-06-21T09:59:13.753Z,58.45
2017-06-21T10:00:22.647Z,58.45
2017-06-21T10:01:31.691Z,61.23
2017-06-21T10:02:40.927Z,62.29
2017-06-21T10:03:49.930Z,60.94
2017-06-21T10:04:59.474Z,59.44
2017-06-21T10:06:08.697Z,58.57
2017-06-21T10:07:17.741Z,57.99
2017-06-21T10:08:26.637Z,58.37
2017-06-21T10:09:35.855Z,58.57
2017-06-21T10:10:44.753Z,58.95
2017-06-21T10:11:53.648Z,58.28
2017-06-21T10:13:02.987Z,56.74
2017-06-21T10:14:11.883Z,56.07
2017-06-21T10:15:20.776Z,56.84
2017-06-21T10:16:30.328Z,57.13
2017-06-21T10:17:39.229Z,57.64
2017-06-21T10:18:48.275Z,57.32
2017-06-21T10:19:57.491Z,55.88
2017-06-21T10:21:06.713Z,56.77
2017-06-21T10:22:16.013Z,56.48
2017-06-21T10:23:24.913Z,56.77
2017-06-21T10:24:33.966Z,56.55
2017-06-21T10:25:43.506Z,57.7
2017-06-21T10:26:52.404Z,58.28
2017-06-21T10:28:01.625Z,56.38
2017-06-21T10:29:11.188Z,55.13
2017-06-21T10:30:20.766Z,56.67
2017-06-21T10:31:30.025Z,55.13
2017-06-21T10:32:39.245Z,54.65
2017-06-21T10:33:48.137Z,56.38
2017-06-21T10:34:57.043Z,56.2
2017-06-21T10:36:06.850Z,55.43
2017-06-21T10:37:16.433Z,56.38
2017-06-21T10:38:25.661Z,54.85
2017-06-21T10:39:34.556Z,56.2
2017-06-21T10:40:43.454Z,55.52
2017-06-21T10:41:52.498Z,54.58
2017-06-21T10:43:01.398Z,54.2
2017-06-21T10:44:10.297Z,54.87
2017-06-21T10:45:19.646Z,55.16
2017-06-21T10:46:28.544Z,55.16
2017-06-21T10:47:37.455Z,55.74
2017-06-21T10:48:46.346Z,54.87
2017-06-21T10:49:55.567Z,54.13
2017-06-21T10:51:04.850Z,55.38
2017-06-21T10:52:14.069Z,53.74
2017-06-21T10:53:23.402Z,54.22
2017-06-21T10:54:32.330Z,51.82
2017-06-21T10:55:41.222Z,51.72
2017-06-21T10:56:50.159Z,52.3
2017-06-21T10:57:59.055Z,52.11
2017-06-21T10:59:08.199Z,52.4
2017-06-21T11:00:17.432Z,53.27
2017-06-21T11:01:26.330Z,52.18
2017-06-21T11:02:35.302Z,53.05
2017-06-21T11:03:44.192Z,53.91
2017-06-21T11:04:53.425Z,54.42
2017-06-21T11:06:02.317Z,54.9
2017-06-21T11:07:11.539Z,54.42
2017-06-21T11:08:21.091Z,54.03
2017-06-21T11:09:29.983Z,53.45
2017-06-21T11:10:39.254Z,53.94
2017-06-21T11:11:48.145Z,52.81
2017-06-21T11:12:57.035Z,51.92
2017-06-21T11:14:06.254Z,53.36
2017-06-21T11:15:15.146Z,52.3
2017-06-21T11:16:24.197Z,52.87
2017-06-21T11:17:33.324Z,53.19
2017-06-21T11:18:42.317Z,53.67
2017-06-21T11:19:51.210Z,53
2017-06-21T11:21:00.105Z,53.96
2017-06-21T11:22:09.068Z,52.61
2017-06-21T11:23:18.010Z,52.16
2017-06-21T11:24:26.920Z,53.41
2017-06-21T11:25:35.870Z,53.22
2017-06-21T11:26:45.103Z,53.31
2017-06-21T11:27:54.601Z,53.03
2017-06-21T11:29:03.790Z,53.31
2017-06-21T11:30:12.721Z,52.35
2017-06-21T11:31:21.659Z,53.31
2017-06-21T11:32:30.884Z,52.55
2017-06-21T11:33:40.217Z,53.22
2017-06-21T11:34:49.774Z,52.45
2017-06-21T11:35:58.717Z,51.87
2017-06-21T11:37:07.972Z,50.74
2017-06-21T11:38:17.251Z,50.93
2017-06-21T11:39:26.645Z,51.03
2017-06-21T11:40:35.947Z,51.7
2017-06-21T11:41:44.851Z,51.97
2017-06-21T11:42:53.772Z,51.58
2017-06-21T11:44:02.708Z,51.99
2017-06-21T11:45:12.676Z,52.86
2017-06-21T11:46:22.192Z,52.09
2017-06-21T11:47:31.106Z,50.74
2017-06-21T11:48:39.997Z,50.64
2017-06-21T11:49:48.893Z,50.45
2017-06-21T11:50:58.188Z,51.44
2017-06-21T11:52:07.413Z,50.38
2017-06-21T11:53:16.317Z,49.05
2017-06-21T11:54:25.538Z,48.47
2017-06-21T11:55:35.082Z,48.37
2017-06-21T11:56:44.883Z,49.63
2017-06-21T11:57:53.825Z,47.7
2017-06-21T11:59:02.776Z,46.66
2017-06-21T12:00:12.023Z,45.79
2017-06-21T12:01:20.922Z,46.47
2017-06-21T12:02:30.223Z,46.68
2017-06-21T12:03:39.456Z,46.49
2017-06-21T12:04:48.365Z,46.49
2017-06-21T12:05:57.282Z,47.96
2017-06-21T12:07:06.201Z,46.61
2017-06-21T12:08:15.408Z,45.83
2017-06-21T12:09:24.316Z,45.23
2017-06-21T12:10:33.225Z,45.52
2017-06-21T12:11:42.137Z,47.36
2017-06-21T12:12:51.048Z,47.74
2017-06-21T12:13:59.958Z,46.58
2017-06-21T12:15:08.870Z,45.45
2017-06-21T12:16:18.099Z,46.12
2017-06-21T12:17:27.003Z,45.74
2017-06-21T12:18:35.910Z,45.08
2017-06-21T12:19:45.014Z,45.57
2017-06-21T12:20:54.243Z,44.79
2017-06-21T12:22:03.146Z,45.18
2017-06-21T12:23:12.051Z,43.24
2017-06-21T12:24:21.480Z,43.73
2017-06-21T12:25:30.682Z,43.27
2017-06-21T12:26:39.909Z,43.95
2017-06-21T12:27:49.142Z,43.46
2017-06-21T12:28:58.047Z,42.78
2017-06-21T12:30:06.955Z,42.2
2017-06-21T12:31:16.263Z,42.8
2017-06-21T12:32:25.496Z,43.87
2017-06-21T12:33:34.397Z,43.87
2017-06-21T12:34:43.322Z,43.38
2017-06-21T12:35:52.552Z,42.03
2017-06-21T12:37:01.834Z,41.93
2017-06-21T12:38:10.743Z,41.55
2017-06-21T12:39:19.647Z,42.54
2017-06-21T12:40:28.553Z,42.44
2017-06-21T12:41:37.457Z,41.2
2017-06-21T12:42:46.523Z,40.33
2017-06-21T12:43:55.436Z,40.13
2017-06-21T12:45:04.421Z,39.26
2017-06-21T12:46:13.985Z,38.19
2017-06-21T12:47:22.894Z,38.02
2017-06-21T12:48:32.287Z,39.37
2017-06-21T12:49:41.206Z,39.06
2017-06-21T12:50:50.117Z,39.18
2017-06-21T12:51:59.030Z,40.25
2017-06-21T12:53:08.590Z,39.95
2017-06-21T12:54:17.602Z,38.4
2017-06-21T12:55:26.514Z,38.12
2017-06-21T12:56:35.754Z,38.31
2017-06-21T12:57:44.673Z,39.95
2017-06-21T12:58:53.588Z,37.73
2017-06-21T13:00:02.548Z,39.37
2017-06-21T13:01:11.791Z,39.95
2017-06-21T13:02:20.699Z,38.99
2017-06-21T13:03:29.608Z,39.28
2017-06-21T13:04:38.846Z,38.21
2017-06-21T13:05:48.284Z,38.23
2017-06-21T13:06:57.197Z,39.2
2017-06-21T13:08:06.429Z,36.79
2017-06-21T13:09:15.341Z,36.4
2017-06-21T13:10:24.297Z,36.6
2017-06-21T13:11:33.209Z,36.6
2017-06-21T13:12:42.445Z,37.76
2017-06-21T13:13:51.699Z,37.08
2017-06-21T13:15:00.933Z,37.76
2017-06-21T13:16:09.843Z,36.52
2017-06-21T13:17:18.759Z,35.96
2017-06-21T13:18:27.669Z,34.88
2017-06-21T13:19:36.581Z,34.22
2017-06-21T13:20:45.817Z,34.12
2017-06-21T13:21:55.060Z,34.52
2017-06-21T13:23:04.296Z,33.73
2017-06-21T13:24:13.531Z,35.31
2017-06-21T13:25:22.445Z,34.03
2017-06-21T13:26:31.360Z,34.72
2017-06-21T13:27:40.272Z,33.64
2017-06-21T13:28:49.510Z,34.53
2017-06-21T13:29:58.436Z,35.97
2017-06-21T13:31:07.673Z,36.24
2017-06-21T13:32:16.587Z,36.34
2017-06-21T13:33:25.499Z,35.1
2017-06-21T13:34:34.412Z,34.9
2017-06-21T13:35:43.323Z,34.9
2017-06-21T13:36:52.610Z,35
2017-06-21T13:38:01.521Z,35.1
2017-06-21T13:39:10.766Z,34.9
2017-06-21T13:40:19.690Z,33.44
2017-06-21T13:41:28.602Z,33.07
2017-06-21T13:42:37.613Z,33.36
2017-06-21T13:43:46.523Z,32.78
2017-06-21T13:44:55.436Z,31.61
2017-06-21T13:46:04.998Z,32.31
2017-06-21T13:47:14.245Z,32.89
2017-06-21T13:48:23.407Z,32.6
2017-06-21T13:49:32.964Z,33.11
2017-06-21T13:50:42.226Z,32.02
2017-06-21T13:51:51.140Z,31.64
2017-06-21T13:53:00.058Z,32.32
2017-06-21T13:54:09.075Z,31.53
2017-06-21T13:55:18.316Z,32.89
2017-06-21T13:56:27.229Z,32.99
2017-06-21T13:57:37.112Z,32.02
2017-06-21T13:58:46.023Z,30.08
2017-06-21T13:59:55.033Z,31.25
2017-06-21T14:01:04.618Z,29.6
2017-06-21T14:02:13.859Z,29.71
2017-06-21T14:03:22.771Z,28.16
2017-06-21T14:04:32.009Z,29.72
2017-06-21T14:05:41.173Z,30
2017-06-21T14:06:50.411Z,31.06
2017-06-21T14:07:59.328Z,31.54
2017-06-21T14:09:08.244Z,30.96
2017-06-21T14:10:17.813Z,31.17
2017-06-21T14:11:27.200Z,30.39
2017-06-21T14:12:36.448Z,29.52
2017-06-21T14:13:45.361Z,29.42
2017-06-21T14:14:54.599Z,29.04
2017-06-21T14:16:03.524Z,28.57
2017-06-21T14:17:12.690Z,27.89
2017-06-21T14:18:21.616Z,28.57
2017-06-21T14:19:30.860Z,27.8
2017-06-21T14:20:39.781Z,26.91
2017-06-21T14:21:48.697Z,28.58
2017-06-21T14:22:57.633Z,26.92
2017-06-21T14:24:07.216Z,26.93
2017-06-21T14:25:16.825Z,29.08
2017-06-21T14:26:25.740Z,27.8
2017-06-21T14:27:34.660Z,28.68
2017-06-21T14:28:43.827Z,27.41
2017-06-21T14:29:52.741Z,27.81
2017-06-21T14:31:02.628Z,27.42
2017-06-21T14:32:11.870Z,26.35
2017-06-21T14:33:21.115Z,25.75
2017-06-21T14:34:30.281Z,27.31
2017-06-21T14:35:39.848Z,27.12
2017-06-21T14:36:48.762Z,27.31
2017-06-21T14:37:57.678Z,26.34
2017-06-21T14:39:06.933Z,26.45
2017-06-21T14:40:16.564Z,26.76
2017-06-21T14:41:25.477Z,25.6
2017-06-21T14:42:34.395Z,24.22
2017-06-21T14:43:43.311Z,24.71
2017-06-21T14:44:52.221Z,23.65
2017-06-21T14:46:01.441Z,24.73
2017-06-21T14:47:10.355Z,23.93
2017-06-21T14:48:19.266Z,24.13
2017-06-21T14:49:28.181Z,25.4
2017-06-21T14:50:37.445Z,23.74
2017-06-21T14:51:46.409Z,23.65
2017-06-21T14:52:55.651Z,23.75
2017-06-21T14:54:04.913Z,23.94
2017-06-21T14:55:14.476Z,24.33